sensor_id;sensor_type;location;lat;lon;timestamp;P1;durP1;ratioP1;P2;durP2;ratioP2
48588;SDS011;34369;51.174;6.738;2022-11-15T00:00:40;32.93;;;30.53;;
48588;SDS011;34369;51.174;6.738;2022-11-15T00:03:16;33.40;;;30.98;;
48588;SDS011;34369;51.174;6.738;2022-11-15T00:05:50;33.53;;;31.03;;
48588;SDS011;34369;51.174;6.738;2022-11-15T00:08:23;35.50;;;32.70;;
48588;SDS011;34369;51.174;6.738;2022-11-15T00:10:55;34.07;;;31.60;;
48588;SDS011;34369;51.174;6.738;2022-11-15T00:13:30;34.13;;;31.63;;
48588;SDS011;34369;51.174;6.738;2022-11-15T00:16:03;32.47;;;30.17;;
48588;SDS011;34369;51.174;6.738;2022-11-15T00:18:36;34.43;;;31.80;;
48588;SDS011;34369;51.174;6.738;2022-11-15T00:21:10;34.00;;;31.50;;
48588;SDS011;34369;51.174;6.738;2022-11-15T00:23:46;32.80;;;30.50;;
48588;SDS011;34369;51.174;6.738;2022-11-15T00:26:19;34.40;;;32.00;;
48588;SDS011;34369;51.174;6.738;2022-11-15T00:28:53;32.90;;;30.40;;
48588;SDS011;34369;51.174;6.738;2022-11-15T00:31:25;32.97;;;30.57;;
48588;SDS011;34369;51.174;6.738;2022-11-15T00:33:59;32.77;;;30.30;;
48588;SDS011;34369;51.174;6.738;2022-11-15T00:36:32;33.77;;;31.37;;
48588;SDS011;34369;51.174;6.738;2022-11-15T00:39:05;32.50;;;30.10;;
48588;SDS011;34369;51.174;6.738;2022-11-15T00:41:37;32.97;;;30.40;;
48588;SDS011;34369;51.174;6.738;2022-11-15T00:44:11;34.80;;;32.07;;
48588;SDS011;34369;51.174;6.738;2022-11-15T00:46:44;33.27;;;30.77;;
48588;SDS011;34369;51.174;6.738;2022-11-15T00:49:18;34.83;;;32.33;;
48588;SDS011;34369;51.174;6.738;2022-11-15T00:51:52;33.00;;;30.60;;
48588;SDS011;34369;51.174;6.738;2022-11-15T00:54:25;33.23;;;30.63;;
48588;SDS011;34369;51.174;6.738;2022-11-15T00:56:58;32.80;;;30.50;;
48588;SDS011;34369;51.174;6.738;2022-11-15T00:59:33;32.53;;;30.23;;
48588;SDS011;34369;51.174;6.738;2022-11-15T01:02:05;32.57;;;30.17;;
48588;SDS011;34369;51.174;6.738;2022-11-15T01:04:37;31.53;;;29.23;;
48588;SDS011;34369;51.174;6.738;2022-11-15T01:07:10;32.20;;;29.90;;
48588;SDS011;34369;51.174;6.738;2022-11-15T01:09:43;32.27;;;29.87;;
48588;SDS011;34369;51.174;6.738;2022-11-15T01:12:15;31.93;;;29.73;;
48588;SDS011;34369;51.174;6.738;2022-11-15T01:14:49;33.80;;;31.00;;
48588;SDS011;34369;51.174;6.738;2022-11-15T01:17:21;32.37;;;30.03;;
48588;SDS011;34369;51.174;6.738;2022-11-15T01:19:54;33.10;;;30.63;;
48588;SDS011;34369;51.174;6.738;2022-11-15T01:22:27;32.07;;;29.77;;
48588;SDS011;34369;51.174;6.738;2022-11-15T01:24:59;33.60;;;31.20;;
48588;SDS011;34369;51.174;6.738;2022-11-15T01:27:31;33.53;;;31.13;;
48588;SDS011;34369;51.174;6.738;2022-11-15T01:30:07;32.47;;;30.17;;
48588;SDS011;34369;51.174;6.738;2022-11-15T01:32:41;33.03;;;30.63;;
48588;SDS011;34369;51.174;6.738;2022-11-15T01:35:14;32.60;;;30.20;;
48588;SDS011;34369;51.174;6.738;2022-11-15T01:37:47;33.53;;;31.13;;
48588;SDS011;34369;51.174;6.738;2022-11-15T01:40:19;32.47;;;30.17;;
48588;SDS011;34369;51.174;6.738;2022-11-15T01:42:52;32.38;;;29.95;;
48588;SDS011;34369;51.174;6.738;2022-11-15T01:45:26;33.50;;;30.90;;
48588;SDS011;34369;51.174;6.738;2022-11-15T01:47:58;31.87;;;29.57;;
48588;SDS011;34369;51.174;6.738;2022-11-15T01:50:32;33.03;;;30.73;;
48588;SDS011;34369;51.174;6.738;2022-11-15T01:53:07;33.03;;;30.63;;
48588;SDS011;34369;51.174;6.738;2022-11-15T01:55:40;33.50;;;31.00;;
48588;SDS011;34369;51.174;6.738;2022-11-15T01:58:14;33.03;;;30.73;;
48588;SDS011;34369;51.174;6.738;2022-11-15T02:00:50;32.93;;;30.40;;
48588;SDS011;34369;51.174;6.738;2022-11-15T02:03:25;32.50;;;30.20;;
48588;SDS011;34369;51.174;6.738;2022-11-15T02:06:05;31.43;;;29.23;;
48588;SDS011;34369;51.174;6.738;2022-11-15T02:08:38;32.23;;;29.83;;
48588;SDS011;34369;51.174;6.738;2022-11-15T02:11:10;32.13;;;29.70;;
48588;SDS011;34369;51.174;6.738;2022-11-15T02:13:43;32.77;;;30.27;;
48588;SDS011;34369;51.174;6.738;2022-11-15T02:16:20;32.80;;;30.50;;
48588;SDS011;34369;51.174;6.738;2022-11-15T02:19:03;31.90;;;29.60;;
48588;SDS011;34369;51.174;6.738;2022-11-15T02:21:52;32.33;;;30.07;;
48588;SDS011;34369;51.174;6.738;2022-11-15T02:24:39;31.53;;;29.33;;
48588;SDS011;34369;51.174;6.738;2022-11-15T02:30:45;33.40;;;30.90;;
48588;SDS011;34369;51.174;6.738;2022-11-15T02:33:27;33.13;;;30.80;;
48588;SDS011;34369;51.174;6.738;2022-11-15T02:36:09;31.53;;;29.13;;
48588;SDS011;34369;51.174;6.738;2022-11-15T02:38:47;32.23;;;29.73;;
48588;SDS011;34369;51.174;6.738;2022-11-15T02:41:27;31.67;;;29.23;;
48588;SDS011;34369;51.174;6.738;2022-11-15T02:44:07;32.70;;;30.30;;
48588;SDS011;34369;51.174;6.738;2022-11-15T02:46:47;32.00;;;29.40;;
48588;SDS011;34369;51.174;6.738;2022-11-15T02:49:43;33.38;;;30.50;;
48588;SDS011;34369;51.174;6.738;2022-11-15T02:52:18;33.38;;;30.75;;
48588;SDS011;34369;51.174;6.738;2022-11-15T02:54:54;32.15;;;29.65;;
48588;SDS011;34369;51.174;6.738;2022-11-15T02:57:29;32.40;;;30.00;;
48588;SDS011;34369;51.174;6.738;2022-11-15T03:00:13;32.37;;;30.07;;
48588;SDS011;34369;51.174;6.738;2022-11-15T03:02:55;32.97;;;30.57;;
48588;SDS011;34369;51.174;6.738;2022-11-15T03:05:56;32.33;;;30.03;;
48588;SDS011;34369;51.174;6.738;2022-11-15T03:08:44;32.47;;;30.07;;
48588;SDS011;34369;51.174;6.738;2022-11-15T03:11:28;32.30;;;30.00;;
48588;SDS011;34369;51.174;6.738;2022-11-15T03:14:07;33.10;;;30.80;;
48588;SDS011;34369;51.174;6.738;2022-11-15T03:16:51;31.70;;;29.40;;
48588;SDS011;34369;51.174;6.738;2022-11-15T03:19:33;30.75;;;28.55;;
48588;SDS011;34369;51.174;6.738;2022-11-15T03:22:14;32.07;;;29.77;;
48588;SDS011;34369;51.174;6.738;2022-11-15T03:24:50;31.10;;;28.90;;
48588;SDS011;34369;51.174;6.738;2022-11-15T03:27:28;31.33;;;29.13;;
48588;SDS011;34369;51.174;6.738;2022-11-15T03:30:07;31.20;;;28.90;;
48588;SDS011;34369;51.174;6.738;2022-11-15T03:32:41;31.93;;;29.53;;
48588;SDS011;34369;51.174;6.738;2022-11-15T03:35:20;31.48;;;29.10;;
48588;SDS011;34369;51.174;6.738;2022-11-15T03:37:54;31.63;;;29.02;;
48588;SDS011;34369;51.174;6.738;2022-11-15T03:40:34;31.98;;;29.58;;
48588;SDS011;34369;51.174;6.738;2022-11-15T03:43:12;30.65;;;28.45;;
48588;SDS011;34369;51.174;6.738;2022-11-15T03:45:54;31.00;;;28.80;;
48588;SDS011;34369;51.174;6.738;2022-11-15T03:48:33;33.63;;;31.13;;
48588;SDS011;34369;51.174;6.738;2022-11-15T03:51:12;32.10;;;29.70;;
48588;SDS011;34369;51.174;6.738;2022-11-15T03:53:45;32.97;;;30.40;;
48588;SDS011;34369;51.174;6.738;2022-11-15T03:56:17;31.15;;;28.95;;
48588;SDS011;34369;51.174;6.738;2022-11-15T03:58:50;32.15;;;29.70;;
48588;SDS011;34369;51.174;6.738;2022-11-15T04:01:22;31.95;;;29.55;;
48588;SDS011;34369;51.174;6.738;2022-11-15T04:03:54;32.08;;;29.77;;
48588;SDS011;34369;51.174;6.738;2022-11-15T04:06:27;31.88;;;29.33;;
48588;SDS011;34369;51.174;6.738;2022-11-15T04:08:59;32.53;;;30.10;;
48588;SDS011;34369;51.174;6.738;2022-11-15T04:11:31;31.30;;;28.95;;
48588;SDS011;34369;51.174;6.738;2022-11-15T04:14:03;32.13;;;29.65;;
48588;SDS011;34369;51.174;6.738;2022-11-15T04:16:35;31.73;;;29.52;;
48588;SDS011;34369;51.174;6.738;2022-11-15T04:19:07;31.48;;;29.13;;
48588;SDS011;34369;51.174;6.738;2022-11-15T04:21:58;32.38;;;29.88;;
48588;SDS011;34369;51.174;6.738;2022-11-15T04:24:47;31.63;;;29.10;;
48588;SDS011;34369;51.174;6.738;2022-11-15T04:27:19;32.53;;;30.13;;
48588;SDS011;34369;51.174;6.738;2022-11-15T04:29:51;31.33;;;29.02;;
48588;SDS011;34369;51.174;6.738;2022-11-15T04:32:23;31.52;;;29.17;;
48588;SDS011;34369;51.174;6.738;2022-11-15T04:34:55;31.55;;;29.17;;
48588;SDS011;34369;51.174;6.738;2022-11-15T04:37:28;31.50;;;29.20;;
48588;SDS011;34369;51.174;6.738;2022-11-15T04:39:59;30.58;;;28.38;;
48588;SDS011;34369;51.174;6.738;2022-11-15T04:42:31;31.20;;;28.95;;
48588;SDS011;34369;51.174;6.738;2022-11-15T04:45:03;31.90;;;29.50;;
48588;SDS011;34369;51.174;6.738;2022-11-15T04:47:36;30.50;;;28.15;;
48588;SDS011;34369;51.174;6.738;2022-11-15T04:50:08;31.15;;;28.85;;
48588;SDS011;34369;51.174;6.738;2022-11-15T04:52:49;32.30;;;29.60;;
48588;SDS011;34369;51.174;6.738;2022-11-15T04:55:23;32.70;;;30.02;;
48588;SDS011;34369;51.174;6.738;2022-11-15T04:57:58;32.60;;;30.17;;
48588;SDS011;34369;51.174;6.738;2022-11-15T05:00:30;32.40;;;29.90;;
48588;SDS011;34369;51.174;6.738;2022-11-15T05:03:02;30.73;;;28.52;;
48588;SDS011;34369;51.174;6.738;2022-11-15T05:05:52;29.95;;;27.75;;
48588;SDS011;34369;51.174;6.738;2022-11-15T05:08:25;30.57;;;28.27;;
48588;SDS011;34369;51.174;6.738;2022-11-15T05:10:57;31.15;;;28.65;;
48588;SDS011;34369;51.174;6.738;2022-11-15T05:13:29;30.40;;;28.30;;
48588;SDS011;34369;51.174;6.738;2022-11-15T05:16:01;29.67;;;27.48;;
48588;SDS011;34369;51.174;6.738;2022-11-15T05:18:33;30.13;;;28.02;;
48588;SDS011;34369;51.174;6.738;2022-11-15T05:21:05;31.70;;;29.30;;
48588;SDS011;34369;51.174;6.738;2022-11-15T05:23:41;31.58;;;29.30;;
48588;SDS011;34369;51.174;6.738;2022-11-15T05:26:13;30.52;;;28.33;;
48588;SDS011;34369;51.174;6.738;2022-11-15T05:28:51;30.10;;;27.85;;
48588;SDS011;34369;51.174;6.738;2022-11-15T05:31:25;30.88;;;28.67;;
48588;SDS011;34369;51.174;6.738;2022-11-15T05:33:58;29.20;;;27.17;;
48588;SDS011;34369;51.174;6.738;2022-11-15T05:36:33;30.70;;;28.50;;
48588;SDS011;34369;51.174;6.738;2022-11-15T05:39:10;30.42;;;28.23;;
48588;SDS011;34369;51.174;6.738;2022-11-15T05:41:43;29.88;;;27.77;;
48588;SDS011;34369;51.174;6.738;2022-11-15T05:44:19;30.17;;;28.10;;
48588;SDS011;34369;51.174;6.738;2022-11-15T05:46:55;31.92;;;29.63;;
48588;SDS011;34369;51.174;6.738;2022-11-15T05:49:29;30.90;;;28.25;;
48588;SDS011;34369;51.174;6.738;2022-11-15T05:52:06;30.17;;;28.00;;
48588;SDS011;34369;51.174;6.738;2022-11-15T05:54:41;30.60;;;28.40;;
48588;SDS011;34369;51.174;6.738;2022-11-15T05:57:14;30.83;;;28.52;;
48588;SDS011;34369;51.174;6.738;2022-11-15T05:59:46;31.55;;;29.35;;
48588;SDS011;34369;51.174;6.738;2022-11-15T06:02:19;31.10;;;28.90;;
48588;SDS011;34369;51.174;6.738;2022-11-15T06:04:51;30.13;;;28.00;;
48588;SDS011;34369;51.174;6.738;2022-11-15T06:07:23;29.80;;;27.70;;
48588;SDS011;34369;51.174;6.738;2022-11-15T06:09:56;31.15;;;28.70;;
48588;SDS011;34369;51.174;6.738;2022-11-15T06:12:28;30.42;;;28.33;;
48588;SDS011;34369;51.174;6.738;2022-11-15T06:15:00;31.48;;;29.17;;
48588;SDS011;34369;51.174;6.738;2022-11-15T06:17:32;30.77;;;28.65;;
48588;SDS011;34369;51.174;6.738;2022-11-15T06:20:04;30.98;;;28.65;;
48588;SDS011;34369;51.174;6.738;2022-11-15T06:22:37;30.33;;;28.23;;
48588;SDS011;34369;51.174;6.738;2022-11-15T06:25:11;30.08;;;28.02;;
48588;SDS011;34369;51.174;6.738;2022-11-15T06:27:42;30.20;;;28.00;;
48588;SDS011;34369;51.174;6.738;2022-11-15T06:30:15;29.92;;;27.73;;
48588;SDS011;34369;51.174;6.738;2022-11-15T06:32:47;30.75;;;28.65;;
48588;SDS011;34369;51.174;6.738;2022-11-15T06:35:19;29.77;;;27.58;;
48588;SDS011;34369;51.174;6.738;2022-11-15T06:37:52;29.80;;;27.70;;
48588;SDS011;34369;51.174;6.738;2022-11-15T06:40:25;29.75;;;27.60;;
48588;SDS011;34369;51.174;6.738;2022-11-15T06:42:58;30.13;;;27.98;;
48588;SDS011;34369;51.174;6.738;2022-11-15T06:45:31;28.08;;;26.17;;
48588;SDS011;34369;51.174;6.738;2022-11-15T06:48:03;28.88;;;26.88;;
48588;SDS011;34369;51.174;6.738;2022-11-15T06:50:37;29.15;;;27.15;;
48588;SDS011;34369;51.174;6.738;2022-11-15T06:53:09;27.77;;;25.77;;
48588;SDS011;34369;51.174;6.738;2022-11-15T06:55:42;28.92;;;26.92;;
48588;SDS011;34369;51.174;6.738;2022-11-15T06:58:15;29.10;;;27.10;;
48588;SDS011;34369;51.174;6.738;2022-11-15T07:00:47;29.10;;;27.13;;
48588;SDS011;34369;51.174;6.738;2022-11-15T07:03:19;28.85;;;26.77;;
48588;SDS011;34369;51.174;6.738;2022-11-15T07:05:52;29.25;;;27.17;;
48588;SDS011;34369;51.174;6.738;2022-11-15T07:08:26;29.48;;;27.38;;
48588;SDS011;34369;51.174;6.738;2022-11-15T07:11:01;29.40;;;27.40;;
48588;SDS011;34369;51.174;6.738;2022-11-15T07:13:37;28.85;;;26.88;;
48588;SDS011;34369;51.174;6.738;2022-11-15T07:16:09;29.42;;;27.42;;
48588;SDS011;34369;51.174;6.738;2022-11-15T07:18:42;30.35;;;28.15;;
48588;SDS011;34369;51.174;6.738;2022-11-15T07:21:14;30.05;;;27.95;;
48588;SDS011;34369;51.174;6.738;2022-11-15T07:23:46;28.75;;;26.65;;
48588;SDS011;34369;51.174;6.738;2022-11-15T07:26:20;28.80;;;26.75;;
48588;SDS011;34369;51.174;6.738;2022-11-15T07:28:52;28.88;;;26.95;;
48588;SDS011;34369;51.174;6.738;2022-11-15T07:31:24;30.48;;;28.38;;
48588;SDS011;34369;51.174;6.738;2022-11-15T07:33:57;29.52;;;27.52;;
48588;SDS011;34369;51.174;6.738;2022-11-15T07:36:29;28.40;;;26.50;;
48588;SDS011;34369;51.174;6.738;2022-11-15T07:39:01;29.27;;;27.20;;
48588;SDS011;34369;51.174;6.738;2022-11-15T07:41:35;30.08;;;27.98;;
48588;SDS011;34369;51.174;6.738;2022-11-15T07:44:08;28.70;;;26.60;;
48588;SDS011;34369;51.174;6.738;2022-11-15T07:46:40;27.95;;;25.95;;
48588;SDS011;34369;51.174;6.738;2022-11-15T07:49:12;27.95;;;26.10;;
48588;SDS011;34369;51.174;6.738;2022-11-15T07:51:45;27.92;;;26.02;;
48588;SDS011;34369;51.174;6.738;2022-11-15T07:54:17;28.17;;;26.27;;
48588;SDS011;34369;51.174;6.738;2022-11-15T07:56:50;27.98;;;25.98;;
48588;SDS011;34369;51.174;6.738;2022-11-15T07:59:23;26.90;;;25.00;;
48588;SDS011;34369;51.174;6.738;2022-11-15T08:01:55;27.23;;;25.40;;
48588;SDS011;34369;51.174;6.738;2022-11-15T08:04:27;28.20;;;26.20;;
48588;SDS011;34369;51.174;6.738;2022-11-15T08:06:59;27.65;;;25.75;;
48588;SDS011;34369;51.174;6.738;2022-11-15T08:09:32;28.65;;;26.65;;
48588;SDS011;34369;51.174;6.738;2022-11-15T08:12:05;26.73;;;24.92;;
48588;SDS011;34369;51.174;6.738;2022-11-15T08:14:38;27.73;;;25.92;;
48588;SDS011;34369;51.174;6.738;2022-11-15T08:17:10;27.73;;;25.77;;
48588;SDS011;34369;51.174;6.738;2022-11-15T08:19:42;27.48;;;25.48;;
48588;SDS011;34369;51.174;6.738;2022-11-15T08:22:15;27.45;;;25.65;;
48588;SDS011;34369;51.174;6.738;2022-11-15T08:24:48;27.55;;;25.63;;
48588;SDS011;34369;51.174;6.738;2022-11-15T08:27:22;28.00;;;26.10;;
48588;SDS011;34369;51.174;6.738;2022-11-15T08:29:54;27.55;;;25.67;;
48588;SDS011;34369;51.174;6.738;2022-11-15T08:32:26;28.60;;;26.60;;
48588;SDS011;34369;51.174;6.738;2022-11-15T08:34:59;27.42;;;25.42;;
48588;SDS011;34369;51.174;6.738;2022-11-15T08:37:31;27.80;;;25.90;;
48588;SDS011;34369;51.174;6.738;2022-11-15T08:40:04;28.58;;;26.67;;
48588;SDS011;34369;51.174;6.738;2022-11-15T08:42:39;27.80;;;25.85;;
48588;SDS011;34369;51.174;6.738;2022-11-15T08:45:12;27.60;;;25.70;;
48588;SDS011;34369;51.174;6.738;2022-11-15T08:47:45;27.20;;;25.30;;
48588;SDS011;34369;51.174;6.738;2022-11-15T08:50:17;26.95;;;25.10;;
48588;SDS011;34369;51.174;6.738;2022-11-15T08:52:50;26.95;;;25.15;;
48588;SDS011;34369;51.174;6.738;2022-11-15T08:55:23;27.40;;;25.40;;
48588;SDS011;34369;51.174;6.738;2022-11-15T08:57:58;26.67;;;24.80;;
48588;SDS011;34369;51.174;6.738;2022-11-15T09:00:33;27.30;;;25.50;;
48588;SDS011;34369;51.174;6.738;2022-11-15T09:03:06;26.75;;;24.95;;
48588;SDS011;34369;51.174;6.738;2022-11-15T09:05:40;27.13;;;25.15;;
48588;SDS011;34369;51.174;6.738;2022-11-15T09:08:13;27.05;;;25.25;;
48588;SDS011;34369;51.174;6.738;2022-11-15T09:10:45;27.40;;;25.60;;
48588;SDS011;34369;51.174;6.738;2022-11-15T09:13:19;26.27;;;24.50;;
48588;SDS011;34369;51.174;6.738;2022-11-15T09:15:51;26.67;;;24.77;;
48588;SDS011;34369;51.174;6.738;2022-11-15T09:18:24;26.85;;;25.05;;
48588;SDS011;34369;51.174;6.738;2022-11-15T09:20:57;27.17;;;25.23;;
48588;SDS011;34369;51.174;6.738;2022-11-15T09:23:32;27.73;;;25.55;;
48588;SDS011;34369;51.174;6.738;2022-11-15T09:26:05;26.65;;;24.75;;
48588;SDS011;34369;51.174;6.738;2022-11-15T09:28:39;27.17;;;25.27;;
48588;SDS011;34369;51.174;6.738;2022-11-15T09:31:13;27.13;;;25.20;;
48588;SDS011;34369;51.174;6.738;2022-11-15T09:33:45;27.10;;;25.30;;
48588;SDS011;34369;51.174;6.738;2022-11-15T09:36:18;26.80;;;25.00;;
48588;SDS011;34369;51.174;6.738;2022-11-15T09:38:50;26.73;;;24.92;;
48588;SDS011;34369;51.174;6.738;2022-11-15T09:41:28;26.85;;;25.05;;
48588;SDS011;34369;51.174;6.738;2022-11-15T09:44:27;26.15;;;24.33;;
48588;SDS011;34369;51.174;6.738;2022-11-15T09:47:35;26.58;;;24.77;;
48588;SDS011;34369;51.174;6.738;2022-11-15T09:50:31;26.10;;;24.40;;
48588;SDS011;34369;51.174;6.738;2022-11-15T09:53:11;26.55;;;24.65;;
48588;SDS011;34369;51.174;6.738;2022-11-15T09:55:48;26.00;;;24.08;;
48588;SDS011;34369;51.174;6.738;2022-11-15T09:58:33;25.88;;;23.98;;
48588;SDS011;34369;51.174;6.738;2022-11-15T10:01:15;26.45;;;24.58;;
48588;SDS011;34369;51.174;6.738;2022-11-15T10:03:54;25.85;;;24.10;;
48588;SDS011;34369;51.174;6.738;2022-11-15T10:06:29;26.73;;;24.70;;
48588;SDS011;34369;51.174;6.738;2022-11-15T10:09:09;26.30;;;24.60;;
48588;SDS011;34369;51.174;6.738;2022-11-15T10:11:47;25.90;;;24.10;;
48588;SDS011;34369;51.174;6.738;2022-11-15T10:14:21;26.10;;;24.15;;
48588;SDS011;34369;51.174;6.738;2022-11-15T10:20:13;25.80;;;23.92;;
48588;SDS011;34369;51.174;6.738;2022-11-15T10:22:51;25.88;;;24.08;;
48588;SDS011;34369;51.174;6.738;2022-11-15T10:25:27;25.60;;;23.85;;
48588;SDS011;34369;51.174;6.738;2022-11-15T10:28:05;25.45;;;23.75;;
48588;SDS011;34369;51.174;6.738;2022-11-15T10:30:47;26.08;;;24.27;;
48588;SDS011;34369;51.174;6.738;2022-11-15T10:33:26;25.77;;;24.08;;
48588;SDS011;34369;51.174;6.738;2022-11-15T10:36:17;26.17;;;24.38;;
48588;SDS011;34369;51.174;6.738;2022-11-15T10:38:56;26.15;;;24.35;;
48588;SDS011;34369;51.174;6.738;2022-11-15T10:41:30;26.00;;;24.20;;
48588;SDS011;34369;51.174;6.738;2022-11-15T10:50:03;26.38;;;24.20;;
48588;SDS011;34369;51.174;6.738;2022-11-15T10:52:38;24.92;;;23.02;;
48588;SDS011;34369;51.174;6.738;2022-11-15T10:55:20;24.33;;;22.63;;
48588;SDS011;34369;51.174;6.738;2022-11-15T10:57:59;25.10;;;23.30;;
48588;SDS011;34369;51.174;6.738;2022-11-15T11:00:36;25.35;;;23.55;;
48588;SDS011;34369;51.174;6.738;2022-11-15T11:03:23;24.70;;;22.90;;
48588;SDS011;34369;51.174;6.738;2022-11-15T11:06:09;24.38;;;22.48;;
48588;SDS011;34369;51.174;6.738;2022-11-15T11:08:53;25.00;;;23.30;;
48588;SDS011;34369;51.174;6.738;2022-11-15T11:11:44;24.45;;;22.73;;
48588;SDS011;34369;51.174;6.738;2022-11-15T11:14:20;24.58;;;22.88;;
48588;SDS011;34369;51.174;6.738;2022-11-15T11:17:01;24.83;;;22.90;;
48588;SDS011;34369;51.174;6.738;2022-11-15T11:19:44;24.67;;;22.90;;
48588;SDS011;34369;51.174;6.738;2022-11-15T11:22:30;24.90;;;23.10;;
48588;SDS011;34369;51.174;6.738;2022-11-15T11:25:13;24.13;;;22.40;;
48588;SDS011;34369;51.174;6.738;2022-11-15T11:28:01;23.42;;;21.83;;
48588;SDS011;34369;51.174;6.738;2022-11-15T11:30:52;23.80;;;22.10;;
48588;SDS011;34369;51.174;6.738;2022-11-15T11:33:50;24.55;;;22.75;;
48588;SDS011;34369;51.174;6.738;2022-11-15T11:36:36;24.85;;;22.77;;
48588;SDS011;34369;51.174;6.738;2022-11-15T11:39:28;24.20;;;22.50;;
48588;SDS011;34369;51.174;6.738;2022-11-15T11:42:16;24.80;;;23.02;;
48588;SDS011;34369;51.174;6.738;2022-11-15T11:45:00;23.98;;;22.27;;
48588;SDS011;34369;51.174;6.738;2022-11-15T11:47:47;24.10;;;22.40;;
48588;SDS011;34369;51.174;6.738;2022-11-15T11:50:25;24.65;;;22.95;;
48588;SDS011;34369;51.174;6.738;2022-11-15T11:52:59;24.77;;;23.08;;
48588;SDS011;34369;51.174;6.738;2022-11-15T11:55:38;24.92;;;23.13;;
48588;SDS011;34369;51.174;6.738;2022-11-15T11:58:16;24.05;;;22.35;;
48588;SDS011;34369;51.174;6.738;2022-11-15T12:01:10;24.40;;;22.50;;
48588;SDS011;34369;51.174;6.738;2022-11-15T12:03:48;23.83;;;21.95;;
48588;SDS011;34369;51.174;6.738;2022-11-15T12:06:30;24.20;;;22.40;;
48588;SDS011;34369;51.174;6.738;2022-11-15T12:09:11;24.77;;;22.98;;
48588;SDS011;34369;51.174;6.738;2022-11-15T12:11:51;24.40;;;22.33;;
48588;SDS011;34369;51.174;6.738;2022-11-15T12:14:31;24.05;;;22.35;;
48588;SDS011;34369;51.174;6.738;2022-11-15T12:17:09;23.50;;;21.77;;
48588;SDS011;34369;51.174;6.738;2022-11-15T12:19:42;24.23;;;22.40;;
48588;SDS011;34369;51.174;6.738;2022-11-15T12:22:16;24.40;;;22.67;;
48588;SDS011;34369;51.174;6.738;2022-11-15T12:24:54;24.48;;;22.58;;
48588;SDS011;34369;51.174;6.738;2022-11-15T12:27:37;25.05;;;23.30;;
48588;SDS011;34369;51.174;6.738;2022-11-15T12:30:16;24.85;;;23.00;;
48588;SDS011;34369;51.174;6.738;2022-11-15T12:32:51;24.27;;;22.58;;
48588;SDS011;34369;51.174;6.738;2022-11-15T12:35:27;24.42;;;22.52;;
48588;SDS011;34369;51.174;6.738;2022-11-15T12:38:08;24.13;;;22.42;;
48588;SDS011;34369;51.174;6.738;2022-11-15T12:43:49;24.80;;;23.05;;
48588;SDS011;34369;51.174;6.738;2022-11-15T12:49:43;24.33;;;22.63;;
48588;SDS011;34369;51.174;6.738;2022-11-15T12:52:18;24.25;;;22.55;;
48588;SDS011;34369;51.174;6.738;2022-11-15T12:55:01;24.70;;;22.80;;
48588;SDS011;34369;51.174;6.738;2022-11-15T13:01:00;24.20;;;22.40;;
48588;SDS011;34369;51.174;6.738;2022-11-15T13:03:35;24.50;;;22.70;;
48588;SDS011;34369;51.174;6.738;2022-11-15T13:06:45;23.92;;;22.13;;
48588;SDS011;34369;51.174;6.738;2022-11-15T13:15:39;24.08;;;22.42;;
48588;SDS011;34369;51.174;6.738;2022-11-15T13:18:32;25.00;;;23.10;;
48588;SDS011;34369;51.174;6.738;2022-11-15T13:21:19;25.25;;;23.45;;
48588;SDS011;34369;51.174;6.738;2022-11-15T13:24:12;28.10;;;24.15;;
48588;SDS011;34369;51.174;6.738;2022-11-15T13:26:47;24.25;;;22.50;;
48588;SDS011;34369;51.174;6.738;2022-11-15T13:29:20;25.10;;;22.83;;
48588;SDS011;34369;51.174;6.738;2022-11-15T13:31:52;24.58;;;22.65;;
48588;SDS011;34369;51.174;6.738;2022-11-15T13:34:29;24.80;;;22.88;;
48588;SDS011;34369;51.174;6.738;2022-11-15T13:37:08;24.67;;;22.73;;
48588;SDS011;34369;51.174;6.738;2022-11-15T13:39:44;23.90;;;22.20;;
48588;SDS011;34369;51.174;6.738;2022-11-15T13:42:18;24.73;;;22.67;;
48588;SDS011;34369;51.174;6.738;2022-11-15T13:44:54;24.60;;;22.77;;
48588;SDS011;34369;51.174;6.738;2022-11-15T13:47:29;24.75;;;22.88;;
48588;SDS011;34369;51.174;6.738;2022-11-15T13:50:04;24.27;;;22.58;;
48588;SDS011;34369;51.174;6.738;2022-11-15T13:52:36;24.58;;;22.77;;
48588;SDS011;34369;51.174;6.738;2022-11-15T13:55:16;25.15;;;23.42;;
48588;SDS011;34369;51.174;6.738;2022-11-15T13:57:53;24.90;;;23.20;;
48588;SDS011;34369;51.174;6.738;2022-11-15T14:00:33;24.92;;;22.80;;
48588;SDS011;34369;51.174;6.738;2022-11-15T14:03:15;25.58;;;23.80;;
48588;SDS011;34369;51.174;6.738;2022-11-15T14:06:02;24.98;;;23.17;;
48588;SDS011;34369;51.174;6.738;2022-11-15T14:08:40;24.95;;;23.02;;
48588;SDS011;34369;51.174;6.738;2022-11-15T14:11:28;25.13;;;23.42;;
48588;SDS011;34369;51.174;6.738;2022-11-15T14:14:13;25.52;;;23.73;;
48588;SDS011;34369;51.174;6.738;2022-11-15T14:16:47;25.90;;;23.98;;
48588;SDS011;34369;51.174;6.738;2022-11-15T14:19:35;25.02;;;23.23;;
48588;SDS011;34369;51.174;6.738;2022-11-15T14:22:12;25.80;;;24.00;;
48588;SDS011;34369;51.174;6.738;2022-11-15T14:27:44;25.75;;;23.85;;
48588;SDS011;34369;51.174;6.738;2022-11-15T14:30:43;25.85;;;23.95;;
48588;SDS011;34369;51.174;6.738;2022-11-15T14:33:21;26.17;;;24.35;;
48588;SDS011;34369;51.174;6.738;2022-11-15T14:36:01;26.83;;;24.90;;
48588;SDS011;34369;51.174;6.738;2022-11-15T14:38:38;25.73;;;23.70;;
48588;SDS011;34369;51.174;6.738;2022-11-15T14:41:15;26.10;;;24.20;;
48588;SDS011;34369;51.174;6.738;2022-11-15T14:43:51;26.17;;;24.35;;
48588;SDS011;34369;51.174;6.738;2022-11-15T14:46:24;27.25;;;25.15;;
48588;SDS011;34369;51.174;6.738;2022-11-15T14:48:56;26.52;;;24.52;;
48588;SDS011;34369;51.174;6.738;2022-11-15T14:51:29;26.33;;;24.48;;
48588;SDS011;34369;51.174;6.738;2022-11-15T14:54:04;26.77;;;24.77;;
48588;SDS011;34369;51.174;6.738;2022-11-15T14:59:12;26.77;;;24.48;;
48588;SDS011;34369;51.174;6.738;2022-11-15T15:01:45;26.65;;;24.30;;
48588;SDS011;34369;51.174;6.738;2022-11-15T15:04:18;26.92;;;24.55;;
48588;SDS011;34369;51.174;6.738;2022-11-15T15:06:53;26.70;;;24.70;;
48588;SDS011;34369;51.174;6.738;2022-11-15T15:09:27;26.52;;;24.13;;
48588;SDS011;34369;51.174;6.738;2022-11-15T15:12:00;25.83;;;23.83;;
48588;SDS011;34369;51.174;6.738;2022-11-15T15:14:32;26.17;;;24.10;;
48588;SDS011;34369;51.174;6.738;2022-11-15T15:17:04;25.70;;;23.67;;
48588;SDS011;34369;51.174;6.738;2022-11-15T15:19:37;25.58;;;23.77;;
48588;SDS011;34369;51.174;6.738;2022-11-15T15:22:11;25.92;;;24.02;;
48588;SDS011;34369;51.174;6.738;2022-11-15T15:27:19;25.80;;;23.90;;
48588;SDS011;34369;51.174;6.738;2022-11-15T15:29:51;26.00;;;24.10;;
48588;SDS011;34369;51.174;6.738;2022-11-15T15:32:24;27.02;;;24.98;;
48588;SDS011;34369;51.174;6.738;2022-11-15T15:34:56;25.88;;;24.02;;
48588;SDS011;34369;51.174;6.738;2022-11-15T15:37:29;26.08;;;24.05;;
48588;SDS011;34369;51.174;6.738;2022-11-15T15:40:10;27.05;;;24.40;;
48588;SDS011;34369;51.174;6.738;2022-11-15T15:42:47;26.35;;;24.40;;
48588;SDS011;34369;51.174;6.738;2022-11-15T15:45:19;26.10;;;24.20;;
48588;SDS011;34369;51.174;6.738;2022-11-15T15:47:54;26.42;;;24.38;;
48588;SDS011;34369;51.174;6.738;2022-11-15T15:50:27;27.60;;;25.50;;